sensor_id;sensor_type;location;lat;lon;timestamp;P1;durP1;ratioP1;P2;durP2;ratioP2
36547;SDS011;22551;52.206;4.856;2023-04-01T00:03:55;49.67;;;11.40;;
36547;SDS011;22551;52.206;4.856;2023-04-01T00:08:59;44.65;;;11.43;;
36547;SDS011;22551;52.206;4.856;2023-04-01T00:14:01;41.42;;;11.77;;
36547;SDS011;22551;52.206;4.856;2023-04-01T00:19:04;35.38;;;10.75;;
36547;SDS011;22551;52.206;4.856;2023-04-01T00:24:09;36.63;;;11.05;;
36547;SDS011;22551;52.206;4.856;2023-04-01T00:34:13;31.25;;;9.15;;
36547;SDS011;22551;52.206;4.856;2023-04-01T00:39:18;20.95;;;8.07;;
36547;SDS011;22551;52.206;4.856;2023-04-01T00:44:22;22.08;;;7.32;;
36547;SDS011;22551;52.206;4.856;2023-04-01T00:49:28;23.73;;;7.63;;
36547;SDS011;22551;52.206;4.856;2023-04-01T00:54:35;24.63;;;7.30;;
36547;SDS011;22551;52.206;4.856;2023-04-01T00:59:40;22.77;;;6.72;;
36547;SDS011;22551;52.206;4.856;2023-04-01T01:04:45;17.67;;;5.68;;
36547;SDS011;22551;52.206;4.856;2023-04-01T01:09:50;18.83;;;4.80;;
36547;SDS011;22551;52.206;4.856;2023-04-01T01:15:05;13.18;;;4.07;;
36547;SDS011;22551;52.206;4.856;2023-04-01T01:26:09;9.07;;;3.25;;
36547;SDS011;22551;52.206;4.856;2023-04-01T01:31:54;16.83;;;4.85;;
36547;SDS011;22551;52.206;4.856;2023-04-01T01:37:08;14.65;;;5.38;;
36547;SDS011;22551;52.206;4.856;2023-04-01T01:42:16;17.90;;;5.38;;
36547;SDS011;22551;52.206;4.856;2023-04-01T01:47:20;25.43;;;5.30;;
36547;SDS011;22551;52.206;4.856;2023-04-01T01:52:26;35.72;;;6.35;;
36547;SDS011;22551;52.206;4.856;2023-04-01T01:57:30;23.10;;;6.38;;
36547;SDS011;22551;52.206;4.856;2023-04-01T02:02:35;39.58;;;6.93;;
36547;SDS011;22551;52.206;4.856;2023-04-01T02:07:40;28.67;;;6.70;;
36547;SDS011;22551;52.206;4.856;2023-04-01T02:12:49;21.98;;;6.55;;
36547;SDS011;22551;52.206;4.856;2023-04-01T02:17:53;14.85;;;5.15;;
36547;SDS011;22551;52.206;4.856;2023-04-01T02:22:58;13.30;;;3.88;;
36547;SDS011;22551;52.206;4.856;2023-04-01T02:28:01;13.03;;;4.07;;
36547;SDS011;22551;52.206;4.856;2023-04-01T02:33:07;10.60;;;3.17;;
36547;SDS011;22551;52.206;4.856;2023-04-01T02:38:11;14.25;;;3.75;;
36547;SDS011;22551;52.206;4.856;2023-04-01T02:43:15;10.07;;;3.50;;
36547;SDS011;22551;52.206;4.856;2023-04-01T02:48:18;11.30;;;3.33;;
36547;SDS011;22551;52.206;4.856;2023-04-01T02:53:22;8.02;;;2.88;;
36547;SDS011;22551;52.206;4.856;2023-04-01T02:58:24;9.93;;;4.25;;
36547;SDS011;22551;52.206;4.856;2023-04-01T03:03:27;12.27;;;3.85;;
36547;SDS011;22551;52.206;4.856;2023-04-01T03:08:30;9.88;;;5.30;;
36547;SDS011;22551;52.206;4.856;2023-04-01T03:13:32;14.25;;;5.90;;
36547;SDS011;22551;52.206;4.856;2023-04-01T03:18:35;13.18;;;5.55;;
36547;SDS011;22551;52.206;4.856;2023-04-01T03:23:38;13.82;;;6.28;;
36547;SDS011;22551;52.206;4.856;2023-04-01T03:28:40;11.43;;;5.10;;
36547;SDS011;22551;52.206;4.856;2023-04-01T03:33:42;11.48;;;5.10;;
36547;SDS011;22551;52.206;4.856;2023-04-01T03:38:46;12.15;;;4.82;;
36547;SDS011;22551;52.206;4.856;2023-04-01T03:43:48;16.08;;;4.93;;
36547;SDS011;22551;52.206;4.856;2023-04-01T03:48:50;9.10;;;4.35;;
36547;SDS011;22551;52.206;4.856;2023-04-01T03:53:54;9.57;;;4.18;;
36547;SDS011;22551;52.206;4.856;2023-04-01T03:58:56;10.98;;;4.57;;
36547;SDS011;22551;52.206;4.856;2023-04-01T04:03:58;12.15;;;4.85;;
36547;SDS011;22551;52.206;4.856;2023-04-01T04:09:02;9.43;;;4.82;;
36547;SDS011;22551;52.206;4.856;2023-04-01T04:14:04;12.65;;;4.68;;
36547;SDS011;22551;52.206;4.856;2023-04-01T04:19:07;12.98;;;6.03;;
36547;SDS011;22551;52.206;4.856;2023-04-01T04:24:10;16.65;;;6.47;;
36547;SDS011;22551;52.206;4.856;2023-04-01T04:29:12;10.20;;;5.30;;
36547;SDS011;22551;52.206;4.856;2023-04-01T04:34:15;11.95;;;5.95;;
36547;SDS011;22551;52.206;4.856;2023-04-01T04:39:19;14.23;;;6.60;;
36547;SDS011;22551;52.206;4.856;2023-04-01T04:44:21;15.05;;;6.15;;
36547;SDS011;22551;52.206;4.856;2023-04-01T04:49:24;11.55;;;5.18;;
36547;SDS011;22551;52.206;4.856;2023-04-01T04:54:27;14.98;;;5.63;;
36547;SDS011;22551;52.206;4.856;2023-04-01T04:59:30;16.07;;;6.47;;
36547;SDS011;22551;52.206;4.856;2023-04-01T05:04:34;20.73;;;7.07;;
36547;SDS011;22551;52.206;4.856;2023-04-01T05:09:38;15.90;;;6.88;;
36547;SDS011;22551;52.206;4.856;2023-04-01T05:14:40;16.60;;;6.60;;
36547;SDS011;22551;52.206;4.856;2023-04-01T05:19:43;18.95;;;6.93;;
36547;SDS011;22551;52.206;4.856;2023-04-01T05:24:46;18.60;;;8.13;;
36547;SDS011;22551;52.206;4.856;2023-04-01T05:29:48;17.73;;;6.82;;
36547;SDS011;22551;52.206;4.856;2023-04-01T05:34:51;18.02;;;6.80;;
36547;SDS011;22551;52.206;4.856;2023-04-01T05:39:54;16.63;;;7.05;;
36547;SDS011;22551;52.206;4.856;2023-04-01T05:50:00;16.38;;;7.03;;
36547;SDS011;22551;52.206;4.856;2023-04-01T05:55:04;20.00;;;7.82;;
36547;SDS011;22551;52.206;4.856;2023-04-01T06:00:08;17.73;;;9.38;;
36547;SDS011;22551;52.206;4.856;2023-04-01T06:05:13;23.65;;;9.27;;
36547;SDS011;22551;52.206;4.856;2023-04-01T06:10:21;29.17;;;12.35;;
36547;SDS011;22551;52.206;4.856;2023-04-01T06:15:38;30.42;;;13.30;;
36547;SDS011;22551;52.206;4.856;2023-04-01T06:20:50;30.70;;;12.40;;
36547;SDS011;22551;52.206;4.856;2023-04-01T06:31:31;26.52;;;10.35;;
36547;SDS011;22551;52.206;4.856;2023-04-01T06:37:16;25.75;;;10.75;;
36547;SDS011;22551;52.206;4.856;2023-04-01T06:42:44;30.63;;;10.52;;
36547;SDS011;22551;52.206;4.856;2023-04-01T06:48:03;26.10;;;11.18;;
36547;SDS011;22551;52.206;4.856;2023-04-01T06:53:21;28.75;;;9.05;;
36547;SDS011;22551;52.206;4.856;2023-04-01T06:58:29;29.88;;;9.68;;
36547;SDS011;22551;52.206;4.856;2023-04-01T07:03:36;24.27;;;10.77;;
36547;SDS011;22551;52.206;4.856;2023-04-01T07:08:43;27.67;;;9.93;;
36547;SDS011;22551;52.206;4.856;2023-04-01T07:13:48;25.05;;;8.88;;
36547;SDS011;22551;52.206;4.856;2023-04-01T07:18:56;26.42;;;9.75;;
36547;SDS011;22551;52.206;4.856;2023-04-01T07:24:04;24.38;;;9.32;;
36547;SDS011;22551;52.206;4.856;2023-04-01T07:29:14;20.48;;;7.80;;
36547;SDS011;22551;52.206;4.856;2023-04-01T07:34:17;23.75;;;8.27;;
36547;SDS011;22551;52.206;4.856;2023-04-01T07:39:28;28.13;;;7.38;;
36547;SDS011;22551;52.206;4.856;2023-04-01T07:44:43;23.40;;;8.63;;
36547;SDS011;22551;52.206;4.856;2023-04-01T07:49:59;26.92;;;10.05;;
36547;SDS011;22551;52.206;4.856;2023-04-01T07:55:14;23.83;;;10.23;;
36547;SDS011;22551;52.206;4.856;2023-04-01T08:00:24;25.77;;;8.73;;
36547;SDS011;22551;52.206;4.856;2023-04-01T08:05:31;23.02;;;8.75;;
36547;SDS011;22551;52.206;4.856;2023-04-01T08:10:43;22.27;;;7.47;;
36547;SDS011;22551;52.206;4.856;2023-04-01T08:15:55;21.17;;;7.82;;
36547;SDS011;22551;52.206;4.856;2023-04-01T08:21:10;15.57;;;6.70;;
36547;SDS011;22551;52.206;4.856;2023-04-01T08:26:21;15.27;;;7.05;;
36547;SDS011;22551;52.206;4.856;2023-04-01T08:31:34;19.15;;;6.40;;
36547;SDS011;22551;52.206;4.856;2023-04-01T08:36:41;17.02;;;8.02;;
36547;SDS011;22551;52.206;4.856;2023-04-01T08:47:45;17.58;;;7.18;;
36547;SDS011;22551;52.206;4.856;2023-04-01T08:53:17;18.90;;;7.07;;
36547;SDS011;22551;52.206;4.856;2023-04-01T08:58:48;14.75;;;7.38;;
36547;SDS011;22551;52.206;4.856;2023-04-01T09:16:08;13.27;;;5.63;;
36547;SDS011;22551;52.206;4.856;2023-04-01T09:21:34;14.07;;;5.15;;
36547;SDS011;22551;52.206;4.856;2023-04-01T09:27:03;9.00;;;3.50;;
36547;SDS011;22551;52.206;4.856;2023-04-01T09:38:27;11.15;;;4.15;;
36547;SDS011;22551;52.206;4.856;2023-04-01T09:43:48;9.23;;;3.50;;
36547;SDS011;22551;52.206;4.856;2023-04-01T09:49:18;8.38;;;3.85;;
36547;SDS011;22551;52.206;4.856;2023-04-01T09:54:45;5.95;;;3.40;;
36547;SDS011;22551;52.206;4.856;2023-04-01T10:00:15;4.97;;;3.13;;
36547;SDS011;22551;52.206;4.856;2023-04-01T10:11:34;6.30;;;3.13;;
36547;SDS011;22551;52.206;4.856;2023-04-01T10:17:27;6.30;;;3.40;;
36547;SDS011;22551;52.206;4.856;2023-04-01T10:23:01;8.57;;;4.30;;
36547;SDS011;22551;52.206;4.856;2023-04-01T10:28:37;5.87;;;3.23;;
36547;SDS011;22551;52.206;4.856;2023-04-01T10:34:07;4.72;;;2.70;;
36547;SDS011;22551;52.206;4.856;2023-04-01T10:39:59;3.58;;;2.33;;
36547;SDS011;22551;52.206;4.856;2023-04-01T10:45:58;5.85;;;3.10;;
36547;SDS011;22551;52.206;4.856;2023-04-01T11:03:46;8.93;;;3.45;;
36547;SDS011;22551;52.206;4.856;2023-04-01T11:09:48;6.72;;;3.55;;
36547;SDS011;22551;52.206;4.856;2023-04-01T11:15:37;7.85;;;4.00;;
36547;SDS011;22551;52.206;4.856;2023-04-01T11:27:08;7.13;;;4.00;;
36547;SDS011;22551;52.206;4.856;2023-04-01T11:32:44;9.07;;;4.93;;
36547;SDS011;22551;52.206;4.856;2023-04-01T11:37:54;9.20;;;5.47;;
36547;SDS011;22551;52.206;4.856;2023-04-01T11:43:06;10.70;;;5.25;;
36547;SDS011;22551;52.206;4.856;2023-04-01T11:48:32;7.95;;;4.22;;
36547;SDS011;22551;52.206;4.856;2023-04-01T11:53:54;8.85;;;4.70;;
36547;SDS011;22551;52.206;4.856;2023-04-01T12:05:23;9.65;;;5.25;;
36547;SDS011;22551;52.206;4.856;2023-04-01T12:10:44;9.45;;;4.43;;
36547;SDS011;22551;52.206;4.856;2023-04-01T12:15:58;8.52;;;4.03;;
36547;SDS011;22551;52.206;4.856;2023-04-01T12:21:21;7.45;;;3.70;;
36547;SDS011;22551;52.206;4.856;2023-04-01T12:26:35;5.13;;;2.85;;
36547;SDS011;22551;52.206;4.856;2023-04-01T12:31:56;2.30;;;1.70;;
36547;SDS011;22551;52.206;4.856;2023-04-01T12:37:06;4.03;;;1.73;;
36547;SDS011;22551;52.206;4.856;2023-04-01T12:42:18;3.33;;;2.03;;
36547;SDS011;22551;52.206;4.856;2023-04-01T12:47:50;7.32;;;3.00;;
36547;SDS011;22551;52.206;4.856;2023-04-01T12:53:23;7.40;;;3.60;;
36547;SDS011;22551;52.206;4.856;2023-04-01T12:58:49;5.03;;;2.60;;
36547;SDS011;22551;52.206;4.856;2023-04-01T13:04:43;5.78;;;3.38;;
36547;SDS011;22551;52.206;4.856;2023-04-01T13:10:01;10.55;;;4.75;;
36547;SDS011;22551;52.206;4.856;2023-04-01T13:15:20;8.73;;;4.88;;
36547;SDS011;22551;52.206;4.856;2023-04-01T13:20:34;8.48;;;4.47;;
36547;SDS011;22551;52.206;4.856;2023-04-01T13:25:47;9.60;;;3.83;;
36547;SDS011;22551;52.206;4.856;2023-04-01T13:31:00;6.63;;;3.58;;
36547;SDS011;22551;52.206;4.856;2023-04-01T13:36:10;4.25;;;2.72;;
36547;SDS011;22551;52.206;4.856;2023-04-01T13:41:25;5.85;;;3.53;;
36547;SDS011;22551;52.206;4.856;2023-04-01T13:46:48;4.65;;;2.63;;
36547;SDS011;22551;52.206;4.856;2023-04-01T13:52:25;5.20;;;2.37;;
36547;SDS011;22551;52.206;4.856;2023-04-01T13:57:52;6.38;;;3.10;;
36547;SDS011;22551;52.206;4.856;2023-04-01T14:03:19;7.63;;;3.42;;
36547;SDS011;22551;52.206;4.856;2023-04-01T14:08:39;5.45;;;3.15;;
36547;SDS011;22551;52.206;4.856;2023-04-01T14:13:59;6.47;;;3.10;;
36547;SDS011;22551;52.206;4.856;2023-04-01T14:19:11;6.43;;;3.33;;
36547;SDS011;22551;52.206;4.856;2023-04-01T14:24:40;5.50;;;2.88;;
36547;SDS011;22551;52.206;4.856;2023-04-01T14:30:17;7.43;;;3.17;;
36547;SDS011;22551;52.206;4.856;2023-04-01T14:35:38;7.32;;;4.15;;
36547;SDS011;22551;52.206;4.856;2023-04-01T14:40:51;8.40;;;4.45;;
36547;SDS011;22551;52.206;4.856;2023-04-01T14:52:05;8.60;;;4.60;;
36547;SDS011;22551;52.206;4.856;2023-04-01T14:57:22;8.07;;;5.10;;
36547;SDS011;22551;52.206;4.856;2023-04-01T15:02:32;10.70;;;4.88;;
36547;SDS011;22551;52.206;4.856;2023-04-01T15:13:17;13.07;;;5.80;;
36547;SDS011;22551;52.206;4.856;2023-04-01T15:18:47;9.98;;;5.05;;
36547;SDS011;22551;52.206;4.856;2023-04-01T15:24:00;9.85;;;4.60;;
36547;SDS011;22551;52.206;4.856;2023-04-01T15:29:25;8.05;;;5.10;;
36547;SDS011;22551;52.206;4.856;2023-04-01T15:34:42;6.82;;;3.97;;
36547;SDS011;22551;52.206;4.856;2023-04-01T15:39:55;9.18;;;4.65;;
36547;SDS011;22551;52.206;4.856;2023-04-01T15:45:10;8.38;;;4.43;;
36547;SDS011;22551;52.206;4.856;2023-04-01T15:50:26;6.95;;;4.45;;
36547;SDS011;22551;52.206;4.856;2023-04-01T15:55:48;9.00;;;4.47;;
36547;SDS011;22551;52.206;4.856;2023-04-01T16:01:07;10.30;;;4.40;;
36547;SDS011;22551;52.206;4.856;2023-04-01T16:06:33;10.55;;;4.30;;
36547;SDS011;22551;52.206;4.856;2023-04-01T16:11:57;7.97;;;4.22;;
36547;SDS011;22551;52.206;4.856;2023-04-01T16:17:18;8.43;;;4.75;;
36547;SDS011;22551;52.206;4.856;2023-04-01T16:22:53;7.45;;;4.28;;
36547;SDS011;22551;52.206;4.856;2023-04-01T16:28:09;6.75;;;3.80;;
36547;SDS011;22551;52.206;4.856;2023-04-01T16:33:27;7.93;;;3.80;;
36547;SDS011;22551;52.206;4.856;2023-04-01T16:38:43;9.80;;;4.10;;
36547;SDS011;22551;52.206;4.856;2023-04-01T16:43:55;5.95;;;3.65;;
36547;SDS011;22551;52.206;4.856;2023-04-01T16:49:16;4.38;;;2.83;;
36547;SDS011;22551;52.206;4.856;2023-04-01T16:54:35;3.50;;;2.40;;
36547;SDS011;22551;52.206;4.856;2023-04-01T16:59:45;3.50;;;2.67;;
36547;SDS011;22551;52.206;4.856;2023-04-01T17:05:00;3.42;;;2.80;;
36547;SDS011;22551;52.206;4.856;2023-04-01T17:10:11;3.10;;;2.30;;
36547;SDS011;22551;52.206;4.856;2023-04-01T17:15:31;4.93;;;2.92;;
36547;SDS011;22551;52.206;4.856;2023-04-01T17:20:43;4.63;;;2.75;;
36547;SDS011;22551;52.206;4.856;2023-04-01T17:26:03;4.75;;;2.67;;
36547;SDS011;22551;52.206;4.856;2023-04-01T17:31:23;3.75;;;2.65;;
36547;SDS011;22551;52.206;4.856;2023-04-01T17:36:44;4.95;;;3.15;;
36547;SDS011;22551;52.206;4.856;2023-04-01T17:42:00;4.82;;;3.03;;
36547;SDS011;22551;52.206;4.856;2023-04-01T17:47:12;4.43;;;3.10;;
36547;SDS011;22551;52.206;4.856;2023-04-01T17:52:44;4.32;;;2.95;;
36547;SDS011;22551;52.206;4.856;2023-04-01T17:57:58;4.00;;;2.77;;
36547;SDS011;22551;52.206;4.856;2023-04-01T18:03:11;3.97;;;2.67;;
36547;SDS011;22551;52.206;4.856;2023-04-01T18:08:28;6.93;;;3.08;;
36547;SDS011;22551;52.206;4.856;2023-04-01T18:13:53;8.10;;;3.72;;
36547;SDS011;22551;52.206;4.856;2023-04-01T18:19:17;4.10;;;3.15;;
36547;SDS011;22551;52.206;4.856;2023-04-01T18:24:32;5.78;;;3.25;;
36547;SDS011;22551;52.206;4.856;2023-04-01T18:29:45;5.70;;;3.10;;
36547;SDS011;22551;52.206;4.856;2023-04-01T18:34:54;4.53;;;3.22;;
36547;SDS011;22551;52.206;4.856;2023-04-01T18:40:11;3.55;;;2.60;;
36547;SDS011;22551;52.206;4.856;2023-04-01T18:45:21;5.35;;;3.17;;
36547;SDS011;22551;52.206;4.856;2023-04-01T18:50:30;5.22;;;3.58;;
36547;SDS011;22551;52.206;4.856;2023-04-01T18:55:42;4.78;;;3.58;;
36547;SDS011;22551;52.206;4.856;2023-04-01T19:00:49;5.78;;;3.88;;
36547;SDS011;22551;52.206;4.856;2023-04-01T19:11:20;3.80;;;2.90;;
36547;SDS011;22551;52.206;4.856;2023-04-01T19:16:36;4.18;;;2.72;;
36547;SDS011;22551;52.206;4.856;2023-04-01T19:21:47;4.25;;;3.03;;
36547;SDS011;22551;52.206;4.856;2023-04-01T19:27:02;4.47;;;2.95;;
36547;SDS011;22551;52.206;4.856;2023-04-01T19:32:14;5.38;;;3.20;;
36547;SDS011;22551;52.206;4.856;2023-04-01T19:37:27;4.85;;;2.90;;
36547;SDS011;22551;52.206;4.856;2023-04-01T19:42:37;5.57;;;3.60;;
36547;SDS011;22551;52.206;4.856;2023-04-01T19:47:49;7.70;;;3.15;;
36547;SDS011;22551;52.206;4.856;2023-04-01T19:53:06;7.45;;;3.40;;
36547;SDS011;22551;52.206;4.856;2023-04-01T19:58:23;5.63;;;3.08;;
36547;SDS011;22551;52.206;4.856;2023-04-01T20:03:38;9.25;;;4.10;;
36547;SDS011;22551;52.206;4.856;2023-04-01T20:08:51;5.93;;;3.80;;
36547;SDS011;22551;52.206;4.856;2023-04-01T20:14:19;8.48;;;3.95;;
36547;SDS011;22551;52.206;4.856;2023-04-01T20:19:34;8.48;;;4.00;;
36547;SDS011;22551;52.206;4.856;2023-04-01T20:24:41;7.07;;;4.03;;
36547;SDS011;22551;52.206;4.856;2023-04-01T20:29:59;7.13;;;3.38;;
36547;SDS011;22551;52.206;4.856;2023-04-01T20:35:55;5.82;;;3.50;;
36547;SDS011;22551;52.206;4.856;2023-04-01T20:41:10;7.50;;;4.20;;
36547;SDS011;22551;52.206;4.856;2023-04-01T20:46:29;8.98;;;4.05;;
36547;SDS011;22551;52.206;4.856;2023-04-01T20:51:45;9.57;;;4.15;;
36547;SDS011;22551;52.206;4.856;2023-04-01T20:56:57;8.43;;;4.40;;
36547;SDS011;22551;52.206;4.856;2023-04-01T21:02:13;7.90;;;3.92;;
36547;SDS011;22551;52.206;4.856;2023-04-01T21:07:30;8.55;;;3.97;;
36547;SDS011;22551;52.206;4.856;2023-04-01T21:12:38;9.18;;;3.85;;
36547;SDS011;22551;52.206;4.856;2023-04-01T21:18:00;6.13;;;3.90;;
36547;SDS011;22551;52.206;4.856;2023-04-01T21:23:34;7.60;;;4.05;;
36547;SDS011;22551;52.206;4.856;2023-04-01T21:28:53;5.43;;;3.40;;
36547;SDS011;22551;52.206;4.856;2023-04-01T21:34:42;9.25;;;4.20;;
36547;SDS011;22551;52.206;4.856;2023-04-01T21:39:54;8.30;;;4.97;;
36547;SDS011;22551;52.206;4.856;2023-04-01T21:45:19;8.52;;;3.88;;
36547;SDS011;22551;52.206;4.856;2023-04-01T22:02:35;8.80;;;4.82;;
36547;SDS011;22551;52.206;4.856;2023-04-01T22:08:31;10.23;;;5.35;;
36547;SDS011;22551;52.206;4.856;2023-04-01T22:13:53;8.45;;;5.20;;
36547;SDS011;22551;52.206;4.856;2023-04-01T22:19:04;7.45;;;4.18;;
36547;SDS011;22551;52.206;4.856;2023-04-01T22:24:16;7.75;;;3.95;;
36547;SDS011;22551;52.206;4.856;2023-04-01T22:29:26;9.77;;;4.82;;
36547;SDS011;22551;52.206;4.856;2023-04-01T22:34:38;8.77;;;4.82;;
36547;SDS011;22551;52.206;4.856;2023-04-01T22:39:53;9.93;;;5.57;;
36547;SDS011;22551;52.206;4.856;2023-04-01T22:45:18;12.82;;;5.70;;
36547;SDS011;22551;52.206;4.856;2023-04-01T22:50:48;8.07;;;4.65;;
36547;SDS011;22551;52.206;4.856;2023-04-01T22:55:59;7.35;;;5.05;;
36547;SDS011;22551;52.206;4.856;2023-04-01T23:01:10;9.10;;;5.13;;
36547;SDS011;22551;52.206;4.856;2023-04-01T23:06:19;9.95;;;5.20;;
36547;SDS011;22551;52.206;4.856;2023-04-01T23:11:27;11.13;;;5.68;;
36547;SDS011;22551;52.206;4.856;2023-04-01T23:16:36;10.23;;;6.20;;
36547;SDS011;22551;52.206;4.856;2023-04-01T23:21:44;13.10;;;6.43;;
36547;SDS011;22551;52.206;4.856;2023-04-01T23:26:52;14.85;;;6.18;;
36547;SDS011;22551;52.206;4.856;2023-04-01T23:32:01;15.45;;;6.57;;
36547;SDS011;22551;52.206;4.856;2023-04-01T23:37:05;11.98;;;6.60;;
36547;SDS011;22551;52.206;4.856;2023-04-01T23:42:14;12.00;;;6.80;;
36547;SDS011;22551;52.206;4.856;2023-04-01T23:47:21;11.27;;;5.80;;
36547;SDS011;22551;52.206;4.856;2023-04-01T23:52:27;13.45;;;6.63;;
36547;SDS011;22551;52.206;4.856;2023-04-01T23:57:34;13.00;;;6.38;;
